sensor_id;sensor_type;location;lat;lon;timestamp;pressure;altitude;pressure_sealevel;temperature;humidity
46392;BME280;32098;49.448;7.904;2023-06-14T00:01:30;97747.69;;;13.47;49.93
46392;BME280;32098;49.448;7.904;2023-06-14T00:04:01;97753.16;;;13.57;49.95
46392;BME280;32098;49.448;7.904;2023-06-14T00:06:30;97752.59;;;13.55;50.36
46392;BME280;32098;49.448;7.904;2023-06-14T00:08:57;97746.44;;;13.60;49.82
46392;BME280;32098;49.448;7.904;2023-06-14T00:11:24;97744.41;;;13.35;50.63
46392;BME280;32098;49.448;7.904;2023-06-14T00:13:52;97741.44;;;13.37;50.93
46392;BME280;32098;49.448;7.904;2023-06-14T00:16:19;97741.16;;;12.96;52.85
46392;BME280;32098;49.448;7.904;2023-06-14T00:18:46;97744.25;;;12.83;52.94
46392;BME280;32098;49.448;7.904;2023-06-14T00:21:12;97728.59;;;12.65;53.28
46392;BME280;32098;49.448;7.904;2023-06-14T00:23:38;97735.34;;;12.73;53.76
46392;BME280;32098;49.448;7.904;2023-06-14T00:26:05;97735.75;;;12.60;53.58
46392;BME280;32098;49.448;7.904;2023-06-14T00:28:32;97732.44;;;12.48;54.02
46392;BME280;32098;49.448;7.904;2023-06-14T00:30:58;97735.22;;;12.36;54.59
46392;BME280;32098;49.448;7.904;2023-06-14T00:33:27;97737.00;;;12.25;55.13
46392;BME280;32098;49.448;7.904;2023-06-14T00:35:54;97744.78;;;12.27;55.29
46392;BME280;32098;49.448;7.904;2023-06-14T00:38:20;97733.97;;;12.17;55.41
46392;BME280;32098;49.448;7.904;2023-06-14T00:40:47;97733.91;;;12.12;55.39
46392;BME280;32098;49.448;7.904;2023-06-14T00:43:14;97731.56;;;12.15;55.49
46392;BME280;32098;49.448;7.904;2023-06-14T00:45:42;97737.28;;;12.02;55.73
46392;BME280;32098;49.448;7.904;2023-06-14T00:48:09;97709.78;;;11.85;56.26
46392;BME280;32098;49.448;7.904;2023-06-14T00:50:37;97735.84;;;11.95;56.55
46392;BME280;32098;49.448;7.904;2023-06-14T00:53:04;97738.59;;;12.00;56.35
46392;BME280;32098;49.448;7.904;2023-06-14T00:55:31;97739.03;;;11.92;55.99
46392;BME280;32098;49.448;7.904;2023-06-14T00:57:59;97750.34;;;11.99;55.47
46392;BME280;32098;49.448;7.904;2023-06-14T01:00:25;97746.63;;;12.00;55.37
46392;BME280;32098;49.448;7.904;2023-06-14T01:02:55;97748.09;;;11.91;55.24
46392;BME280;32098;49.448;7.904;2023-06-14T01:05:23;97745.44;;;11.91;56.06
46392;BME280;32098;49.448;7.904;2023-06-14T01:10:53;97747.97;;;11.81;56.10
46392;BME280;32098;49.448;7.904;2023-06-14T01:13:36;97761.41;;;11.86;56.09
46392;BME280;32098;49.448;7.904;2023-06-14T01:16:05;97750.28;;;11.94;55.48
46392;BME280;32098;49.448;7.904;2023-06-14T01:18:31;97759.56;;;11.86;56.19
46392;BME280;32098;49.448;7.904;2023-06-14T01:21:00;97754.88;;;11.98;55.59
46392;BME280;32098;49.448;7.904;2023-06-14T01:23:32;97756.56;;;12.04;55.09
46392;BME280;32098;49.448;7.904;2023-06-14T01:26:00;97759.88;;;11.90;55.77
46392;BME280;32098;49.448;7.904;2023-06-14T01:28:31;97756.47;;;11.72;56.47
46392;BME280;32098;49.448;7.904;2023-06-14T01:31:03;97768.00;;;11.56;57.10
46392;BME280;32098;49.448;7.904;2023-06-14T01:33:33;97767.03;;;11.46;57.07
46392;BME280;32098;49.448;7.904;2023-06-14T01:36:02;97715.41;;;11.07;56.66
46392;BME280;32098;49.448;7.904;2023-06-14T01:38:30;97771.47;;;11.57;57.07
46392;BME280;32098;49.448;7.904;2023-06-14T01:40:58;97768.47;;;11.53;57.31
46392;BME280;32098;49.448;7.904;2023-06-14T01:43:26;97781.00;;;11.31;57.22
46392;BME280;32098;49.448;7.904;2023-06-14T01:45:54;97764.97;;;11.31;57.62
46392;BME280;32098;49.448;7.904;2023-06-14T01:48:23;97770.84;;;11.50;56.61
46392;BME280;32098;49.448;7.904;2023-06-14T01:50:49;97776.50;;;11.53;55.98
46392;BME280;32098;49.448;7.904;2023-06-14T01:53:16;97771.16;;;11.53;56.82
46392;BME280;32098;49.448;7.904;2023-06-14T01:55:43;97776.94;;;11.45;56.71
46392;BME280;32098;49.448;7.904;2023-06-14T01:58:10;97775.25;;;11.39;56.47
46392;BME280;32098;49.448;7.904;2023-06-14T02:00:37;97771.00;;;11.43;57.20
46392;BME280;32098;49.448;7.904;2023-06-14T02:03:03;97775.47;;;11.21;57.69
46392;BME280;32098;49.448;7.904;2023-06-14T02:05:30;97762.78;;;10.95;58.77
46392;BME280;32098;49.448;7.904;2023-06-14T02:07:57;97768.34;;;10.93;59.42
46392;BME280;32098;49.448;7.904;2023-06-14T02:10:24;97771.84;;;10.94;59.36
46392;BME280;32098;49.448;7.904;2023-06-14T02:12:50;97775.88;;;10.96;59.22
46392;BME280;32098;49.448;7.904;2023-06-14T02:15:17;97773.56;;;11.00;58.71
46392;BME280;32098;49.448;7.904;2023-06-14T02:17:44;97761.53;;;10.86;59.53
46392;BME280;32098;49.448;7.904;2023-06-14T02:20:11;97780.34;;;11.07;58.56
46392;BME280;32098;49.448;7.904;2023-06-14T02:22:39;97780.84;;;11.04;58.45
46392;BME280;32098;49.448;7.904;2023-06-14T02:25:07;97780.00;;;11.04;58.27
46392;BME280;32098;49.448;7.904;2023-06-14T02:27:34;97778.38;;;11.03;59.05
46392;BME280;32098;49.448;7.904;2023-06-14T02:30:03;97770.78;;;10.95;58.99
46392;BME280;32098;49.448;7.904;2023-06-14T02:32:31;97779.84;;;10.77;59.00
46392;BME280;32098;49.448;7.904;2023-06-14T02:35:01;97775.63;;;10.65;59.58
46392;BME280;32098;49.448;7.904;2023-06-14T02:37:27;97785.16;;;10.61;59.93
46392;BME280;32098;49.448;7.904;2023-06-14T02:39:55;97787.53;;;10.45;60.26
46392;BME280;32098;49.448;7.904;2023-06-14T02:42:22;97784.50;;;10.54;59.67
46392;BME280;32098;49.448;7.904;2023-06-14T02:44:49;97784.44;;;10.65;59.79
46392;BME280;32098;49.448;7.904;2023-06-14T02:47:18;97783.53;;;10.60;59.48
46392;BME280;32098;49.448;7.904;2023-06-14T02:49:45;97784.03;;;10.57;59.33
46392;BME280;32098;49.448;7.904;2023-06-14T02:52:14;97779.19;;;10.70;59.15
46392;BME280;32098;49.448;7.904;2023-06-14T02:54:41;97775.88;;;10.80;58.85
46392;BME280;32098;49.448;7.904;2023-06-14T02:57:09;97782.75;;;10.76;59.19
46392;BME280;32098;49.448;7.904;2023-06-14T02:59:37;97780.88;;;10.76;59.68
46392;BME280;32098;49.448;7.904;2023-06-14T03:02:04;97793.84;;;10.39;60.36
46392;BME280;32098;49.448;7.904;2023-06-14T03:04:33;97793.31;;;10.26;61.18
46392;BME280;32098;49.448;7.904;2023-06-14T03:07:07;97793.19;;;10.32;60.34
46392;BME280;32098;49.448;7.904;2023-06-14T03:09:39;97763.44;;;10.12;61.11
46392;BME280;32098;49.448;7.904;2023-06-14T03:12:09;97796.06;;;10.42;60.10
46392;BME280;32098;49.448;7.904;2023-06-14T03:14:36;97789.81;;;10.37;60.70
46392;BME280;32098;49.448;7.904;2023-06-14T03:17:03;97795.97;;;10.37;60.54
46392;BME280;32098;49.448;7.904;2023-06-14T03:19:33;97791.66;;;10.36;60.54
46392;BME280;32098;49.448;7.904;2023-06-14T03:22:00;97786.97;;;10.43;60.11
46392;BME280;32098;49.448;7.904;2023-06-14T03:24:29;97799.69;;;10.53;59.95
46392;BME280;32098;49.448;7.904;2023-06-14T03:26:57;97798.38;;;10.39;60.68
46392;BME280;32098;49.448;7.904;2023-06-14T03:29:26;97807.41;;;10.38;60.67
46392;BME280;32098;49.448;7.904;2023-06-14T03:32:05;97817.63;;;10.41;61.01
46392;BME280;32098;49.448;7.904;2023-06-14T03:34:37;97808.28;;;10.27;61.17
46392;BME280;32098;49.448;7.904;2023-06-14T03:37:13;97807.53;;;10.15;61.16
46392;BME280;32098;49.448;7.904;2023-06-14T03:39:39;97813.44;;;10.17;60.91
46392;BME280;32098;49.448;7.904;2023-06-14T03:42:15;97818.22;;;9.92;62.43
46392;BME280;32098;49.448;7.904;2023-06-14T03:44:43;97799.53;;;9.92;62.21
46392;BME280;32098;49.448;7.904;2023-06-14T03:47:10;97815.56;;;9.80;62.99
46392;BME280;32098;49.448;7.904;2023-06-14T03:49:36;97818.91;;;9.87;62.95
46392;BME280;32098;49.448;7.904;2023-06-14T03:52:03;97816.81;;;10.12;62.06
46392;BME280;32098;49.448;7.904;2023-06-14T03:54:31;97813.19;;;10.18;61.79
46392;BME280;32098;49.448;7.904;2023-06-14T03:57:02;97817.13;;;10.27;61.32
46392;BME280;32098;49.448;7.904;2023-06-14T03:59:28;97825.09;;;10.56;60.76
46392;BME280;32098;49.448;7.904;2023-06-14T04:01:55;97823.13;;;10.63;60.58
46392;BME280;32098;49.448;7.904;2023-06-14T04:04:22;97832.44;;;10.77;59.61
46392;BME280;32098;49.448;7.904;2023-06-14T04:06:57;97832.53;;;10.82;59.84
46392;BME280;32098;49.448;7.904;2023-06-14T04:09:25;97800.41;;;10.77;59.76
46392;BME280;32098;49.448;7.904;2023-06-14T04:11:52;97824.66;;;11.20;59.19
46392;BME280;32098;49.448;7.904;2023-06-14T04:14:19;97822.41;;;11.45;59.02
46392;BME280;32098;49.448;7.904;2023-06-14T04:16:47;97828.75;;;11.77;58.01
46392;BME280;32098;49.448;7.904;2023-06-14T04:19:16;97837.00;;;11.93;57.97
46392;BME280;32098;49.448;7.904;2023-06-14T04:21:43;97835.94;;;12.15;57.38
46392;BME280;32098;49.448;7.904;2023-06-14T04:24:10;97839.13;;;12.12;57.42
46392;BME280;32098;49.448;7.904;2023-06-14T04:26:43;97842.97;;;12.43;56.58
46392;BME280;32098;49.448;7.904;2023-06-14T04:29:13;97845.44;;;12.71;55.66
46392;BME280;32098;49.448;7.904;2023-06-14T04:31:47;97848.66;;;12.73;54.82
46392;BME280;32098;49.448;7.904;2023-06-14T04:34:14;97843.06;;;13.01;54.17
46392;BME280;32098;49.448;7.904;2023-06-14T04:36:47;97850.19;;;12.91;54.35
46392;BME280;32098;49.448;7.904;2023-06-14T04:39:21;97850.38;;;13.38;53.59
46392;BME280;32098;49.448;7.904;2023-06-14T04:41:48;97848.16;;;13.30;54.08
46392;BME280;32098;49.448;7.904;2023-06-14T04:44:19;97849.09;;;13.82;52.98
46392;BME280;32098;49.448;7.904;2023-06-14T04:46:52;97860.28;;;14.11;52.47
46392;BME280;32098;49.448;7.904;2023-06-14T04:49:21;97861.75;;;14.49;52.11
46392;BME280;32098;49.448;7.904;2023-06-14T04:51:53;97860.28;;;14.83;51.05
46392;BME280;32098;49.448;7.904;2023-06-14T04:54:25;97856.03;;;15.02;50.19
46392;BME280;32098;49.448;7.904;2023-06-14T04:56:52;97871.13;;;15.28;50.01
46392;BME280;32098;49.448;7.904;2023-06-14T04:59:25;97873.56;;;15.50;49.66
46392;BME280;32098;49.448;7.904;2023-06-14T05:01:52;97873.56;;;15.80;48.72
46392;BME280;32098;49.448;7.904;2023-06-14T05:04:21;97871.06;;;16.04;47.89
46392;BME280;32098;49.448;7.904;2023-06-14T05:06:49;97865.59;;;16.29;47.65
46392;BME280;32098;49.448;7.904;2023-06-14T05:09:15;97859.88;;;16.61;46.29
46392;BME280;32098;49.448;7.904;2023-06-14T05:11:43;97862.69;;;16.84;46.35
46392;BME280;32098;49.448;7.904;2023-06-14T05:14:11;97862.56;;;17.05;46.09
46392;BME280;32098;49.448;7.904;2023-06-14T05:16:38;97861.41;;;17.21;45.54
46392;BME280;32098;49.448;7.904;2023-06-14T05:19:06;97863.69;;;17.42;45.59
46392;BME280;32098;49.448;7.904;2023-06-14T05:21:34;97860.63;;;17.54;44.79
46392;BME280;32098;49.448;7.904;2023-06-14T05:24:07;97862.03;;;17.75;44.54
46392;BME280;32098;49.448;7.904;2023-06-14T05:26:35;97866.88;;;18.07;44.13
46392;BME280;32098;49.448;7.904;2023-06-14T05:29:02;97863.38;;;18.30;43.91
46392;BME280;32098;49.448;7.904;2023-06-14T05:31:29;97861.25;;;18.51;42.85
46392;BME280;32098;49.448;7.904;2023-06-14T05:33:55;97857.66;;;18.79;42.74
46392;BME280;32098;49.448;7.904;2023-06-14T05:36:22;97855.56;;;19.13;42.32
46392;BME280;32098;49.448;7.904;2023-06-14T05:38:49;97858.28;;;19.46;41.54
46392;BME280;32098;49.448;7.904;2023-06-14T05:41:17;97859.06;;;19.65;40.41
46392;BME280;32098;49.448;7.904;2023-06-14T05:43:43;97869.16;;;19.78;41.89
46392;BME280;32098;49.448;7.904;2023-06-14T05:46:10;97863.88;;;19.86;41.54
46392;BME280;32098;49.448;7.904;2023-06-14T05:48:36;97861.25;;;19.95;40.57
46392;BME280;32098;49.448;7.904;2023-06-14T05:51:03;97862.72;;;20.33;40.96
46392;BME280;32098;49.448;7.904;2023-06-14T05:53:30;97863.75;;;20.65;40.37
46392;BME280;32098;49.448;7.904;2023-06-14T05:55:56;97865.88;;;21.03;39.23
46392;BME280;32098;49.448;7.904;2023-06-14T05:58:23;97861.84;;;20.51;38.25
46392;BME280;32098;49.448;7.904;2023-06-14T06:00:49;97867.41;;;20.01;38.90
46392;BME280;32098;49.448;7.904;2023-06-14T06:03:17;97863.78;;;20.05;39.58
46392;BME280;32098;49.448;7.904;2023-06-14T06:05:43;97868.72;;;20.03;39.71
46392;BME280;32098;49.448;7.904;2023-06-14T06:08:10;97871.16;;;20.45;38.77
46392;BME280;32098;49.448;7.904;2023-06-14T06:10:36;97864.50;;;19.97;38.54
46392;BME280;32098;49.448;7.904;2023-06-14T06:13:03;97861.72;;;20.29;38.57
46392;BME280;32098;49.448;7.904;2023-06-14T06:15:30;97873.78;;;19.59;39.67
46392;BME280;32098;49.448;7.904;2023-06-14T06:17:56;97868.44;;;19.21;40.46
46392;BME280;32098;49.448;7.904;2023-06-14T06:20:23;97874.53;;;19.46;40.45
46392;BME280;32098;49.448;7.904;2023-06-14T06:23:00;97870.84;;;19.23;40.32
46392;BME280;32098;49.448;7.904;2023-06-14T06:25:27;97875.47;;;18.80;40.78
46392;BME280;32098;49.448;7.904;2023-06-14T06:27:54;97874.72;;;18.56;41.82
46392;BME280;32098;49.448;7.904;2023-06-14T06:30:24;97878.00;;;18.53;41.76
46392;BME280;32098;49.448;7.904;2023-06-14T06:32:51;97880.81;;;18.43;41.92
46392;BME280;32098;49.448;7.904;2023-06-14T06:35:19;97886.97;;;18.25;42.59
46392;BME280;32098;49.448;7.904;2023-06-14T06:37:46;97883.53;;;18.43;42.85
46392;BME280;32098;49.448;7.904;2023-06-14T06:40:12;97881.91;;;18.89;41.28
46392;BME280;32098;49.448;7.904;2023-06-14T06:42:39;97886.06;;;19.00;41.30
46392;BME280;32098;49.448;7.904;2023-06-14T06:45:10;97858.34;;;18.24;42.56
46392;BME280;32098;49.448;7.904;2023-06-14T06:47:36;97855.91;;;18.22;42.69
46392;BME280;32098;49.448;7.904;2023-06-14T06:50:03;97898.94;;;18.66;41.57
46392;BME280;32098;49.448;7.904;2023-06-14T06:52:29;97903.13;;;18.30;42.74
46392;BME280;32098;49.448;7.904;2023-06-14T06:54:56;97904.13;;;18.86;42.66
46392;BME280;32098;49.448;7.904;2023-06-14T06:57:23;97909.78;;;19.27;41.44
46392;BME280;32098;49.448;7.904;2023-06-14T06:59:50;97918.72;;;18.38;42.07
46392;BME280;32098;49.448;7.904;2023-06-14T07:02:16;97914.50;;;17.98;42.74
46392;BME280;32098;49.448;7.904;2023-06-14T07:04:43;97924.44;;;18.07;42.32
46392;BME280;32098;49.448;7.904;2023-06-14T07:07:10;97915.31;;;17.98;42.66
46392;BME280;32098;49.448;7.904;2023-06-14T07:09:36;97919.06;;;18.02;42.51
46392;BME280;32098;49.448;7.904;2023-06-14T07:12:03;97918.25;;;17.73;43.03
46392;BME280;32098;49.448;7.904;2023-06-14T07:14:30;97925.56;;;18.01;43.16
46392;BME280;32098;49.448;7.904;2023-06-14T07:16:56;97915.16;;;17.85;43.58
46392;BME280;32098;49.448;7.904;2023-06-14T07:19:23;97934.84;;;18.24;43.37
46392;BME280;32098;49.448;7.904;2023-06-14T07:21:49;97925.56;;;18.78;41.15
46392;BME280;32098;49.448;7.904;2023-06-14T07:24:18;97944.03;;;19.74;40.22
46392;BME280;32098;49.448;7.904;2023-06-14T07:26:47;97941.13;;;20.16;39.95
46392;BME280;32098;49.448;7.904;2023-06-14T07:29:14;97920.47;;;20.34;39.16
46392;BME280;32098;49.448;7.904;2023-06-14T07:31:42;97932.59;;;20.23;38.67
46392;BME280;32098;49.448;7.904;2023-06-14T07:34:09;97938.25;;;20.26;39.34
46392;BME280;32098;49.448;7.904;2023-06-14T07:36:36;97940.91;;;20.13;39.01
46392;BME280;32098;49.448;7.904;2023-06-14T07:39:03;97931.59;;;20.32;39.87
46392;BME280;32098;49.448;7.904;2023-06-14T07:41:30;97947.72;;;20.10;39.09
46392;BME280;32098;49.448;7.904;2023-06-14T07:43:56;97935.69;;;19.52;39.60
46392;BME280;32098;49.448;7.904;2023-06-14T07:46:23;97947.16;;;19.44;39.41
46392;BME280;32098;49.448;7.904;2023-06-14T07:48:49;97947.97;;;19.25;40.43
46392;BME280;32098;49.448;7.904;2023-06-14T07:51:16;97949.16;;;19.19;40.23
46392;BME280;32098;49.448;7.904;2023-06-14T07:53:42;97942.34;;;19.22;40.34
46392;BME280;32098;49.448;7.904;2023-06-14T07:56:09;97938.09;;;20.36;39.36
46392;BME280;32098;49.448;7.904;2023-06-14T07:58:36;97948.53;;;20.70;38.37
46392;BME280;32098;49.448;7.904;2023-06-14T08:01:03;97947.81;;;20.05;39.00
46392;BME280;32098;49.448;7.904;2023-06-14T08:03:32;97868.97;;;19.37;39.39
46392;BME280;32098;49.448;7.904;2023-06-14T08:05:59;97941.28;;;20.38;39.77
46392;BME280;32098;49.448;7.904;2023-06-14T08:08:27;97947.13;;;20.73;38.08
46392;BME280;32098;49.448;7.904;2023-06-14T08:10:53;97939.69;;;20.78;37.34
46392;BME280;32098;49.448;7.904;2023-06-14T08:13:20;97943.03;;;20.16;38.17
46392;BME280;32098;49.448;7.904;2023-06-14T08:15:46;97955.22;;;19.67;39.77
46392;BME280;32098;49.448;7.904;2023-06-14T08:18:13;97947.25;;;19.76;39.13
46392;BME280;32098;49.448;7.904;2023-06-14T08:20:39;97865.22;;;19.19;39.31
46392;BME280;32098;49.448;7.904;2023-06-14T08:23:06;97948.94;;;19.72;39.68
46392;BME280;32098;49.448;7.904;2023-06-14T08:25:34;97942.44;;;20.32;38.83
46392;BME280;32098;49.448;7.904;2023-06-14T08:28:01;97942.94;;;20.67;37.87
46392;BME280;32098;49.448;7.904;2023-06-14T08:30:27;97944.09;;;21.01;37.89
46392;BME280;32098;49.448;7.904;2023-06-14T08:32:54;97949.66;;;21.46;36.67
46392;BME280;32098;49.448;7.904;2023-06-14T08:35:40;97941.63;;;21.76;36.41
46392;BME280;32098;49.448;7.904;2023-06-14T08:38:07;97944.94;;;21.73;36.34
46392;BME280;32098;49.448;7.904;2023-06-14T08:40:37;97940.06;;;21.26;36.76
46392;BME280;32098;49.448;7.904;2023-06-14T08:43:04;97946.72;;;20.93;36.97
46392;BME280;32098;49.448;7.904;2023-06-14T08:45:30;97939.47;;;21.15;36.67
46392;BME280;32098;49.448;7.904;2023-06-14T08:47:59;97950.78;;;21.80;35.28
46392;BME280;32098;49.448;7.904;2023-06-14T08:50:27;97946.78;;;22.31;35.01
46392;BME280;32098;49.448;7.904;2023-06-14T08:53:00;97951.69;;;22.90;34.57
46392;BME280;32098;49.448;7.904;2023-06-14T08:55:29;97944.47;;;22.77;33.60
46392;BME280;32098;49.448;7.904;2023-06-14T08:58:01;97958.22;;;22.72;34.06
46392;BME280;32098;49.448;7.904;2023-06-14T09:00:30;97953.41;;;22.16;34.69
46392;BME280;32098;49.448;7.904;2023-06-14T09:02:57;97929.63;;;21.06;35.17
46392;BME280;32098;49.448;7.904;2023-06-14T09:05:25;97958.41;;;20.80;35.96
46392;BME280;32098;49.448;7.904;2023-06-14T09:07:53;97930.25;;;20.48;37.21
46392;BME280;32098;49.448;7.904;2023-06-14T09:10:23;97965.22;;;20.36;36.12
46392;BME280;32098;49.448;7.904;2023-06-14T09:12:50;97958.63;;;20.70;35.51
46392;BME280;32098;49.448;7.904;2023-06-14T09:15:17;97958.28;;;20.57;36.41
46392;BME280;32098;49.448;7.904;2023-06-14T09:17:44;97954.28;;;20.69;35.93
46392;BME280;32098;49.448;7.904;2023-06-14T09:20:11;97948.44;;;21.30;34.25
46392;BME280;32098;49.448;7.904;2023-06-14T09:22:44;97956.53;;;21.43;34.25
46392;BME280;32098;49.448;7.904;2023-06-14T09:25:11;97962.66;;;21.84;33.79
46392;BME280;32098;49.448;7.904;2023-06-14T09:27:54;97952.72;;;21.66;34.56
46392;BME280;32098;49.448;7.904;2023-06-14T09:30:21;97967.09;;;21.45;34.76
46392;BME280;32098;49.448;7.904;2023-06-14T09:32:48;97966.47;;;20.85;35.17
46392;BME280;32098;49.448;7.904;2023-06-14T09:35:17;97970.09;;;21.07;35.57
46392;BME280;32098;49.448;7.904;2023-06-14T09:37:44;97969.78;;;20.82;34.58
46392;BME280;32098;49.448;7.904;2023-06-14T09:40:10;97968.44;;;20.66;34.48
46392;BME280;32098;49.448;7.904;2023-06-14T09:42:37;97958.59;;;20.56;34.25
46392;BME280;32098;49.448;7.904;2023-06-14T09:45:04;97964.03;;;20.70;34.57
46392;BME280;32098;49.448;7.904;2023-06-14T09:47:32;97972.03;;;20.47;33.73
46392;BME280;32098;49.448;7.904;2023-06-14T09:49:58;97975.19;;;20.54;33.05
46392;BME280;32098;49.448;7.904;2023-06-14T09:52:27;97968.88;;;21.00;33.55
46392;BME280;32098;49.448;7.904;2023-06-14T09:54:54;97971.56;;;21.63;33.87
46392;BME280;32098;49.448;7.904;2023-06-14T09:57:23;97966.19;;;21.85;34.68
46392;BME280;32098;49.448;7.904;2023-06-14T09:59:57;97968.75;;;22.43;33.36
46392;BME280;32098;49.448;7.904;2023-06-14T10:02:36;97965.81;;;22.53;32.29
46392;BME280;32098;49.448;7.904;2023-06-14T10:05:06;97968.88;;;22.29;31.89
46392;BME280;32098;49.448;7.904;2023-06-14T10:07:42;97970.03;;;22.37;32.36
46392;BME280;32098;49.448;7.904;2023-06-14T10:10:11;97970.31;;;22.35;31.69
46392;BME280;32098;49.448;7.904;2023-06-14T10:12:38;97974.06;;;21.95;33.07
46392;BME280;32098;49.448;7.904;2023-06-14T10:15:07;97981.56;;;21.90;32.79
46392;BME280;32098;49.448;7.904;2023-06-14T10:17:41;97973.56;;;22.37;33.07
46392;BME280;32098;49.448;7.904;2023-06-14T10:20:28;97965.03;;;22.08;32.94
46392;BME280;32098;49.448;7.904;2023-06-14T10:23:01;97967.47;;;21.88;32.29
46392;BME280;32098;49.448;7.904;2023-06-14T10:25:31;97979.91;;;21.66;33.33
46392;BME280;32098;49.448;7.904;2023-06-14T10:28:17;97958.38;;;21.07;33.54
46392;BME280;32098;49.448;7.904;2023-06-14T10:31:14;97980.31;;;21.24;32.97
46392;BME280;32098;49.448;7.904;2023-06-14T10:34:26;97971.34;;;21.37;32.90
46392;BME280;32098;49.448;7.904;2023-06-14T10:37:04;97961.50;;;21.63;31.99
46392;BME280;32098;49.448;7.904;2023-06-14T10:39:32;97964.06;;;21.46;32.70
46392;BME280;32098;49.448;7.904;2023-06-14T10:42:01;97974.69;;;21.07;32.74
46392;BME280;32098;49.448;7.904;2023-06-14T10:46:59;97963.88;;;21.78;31.55
46392;BME280;32098;49.448;7.904;2023-06-14T10:49:44;97964.22;;;22.08;32.14
46392;BME280;32098;49.448;7.904;2023-06-14T10:52:13;97966.94;;;21.63;32.78
46392;BME280;32098;49.448;7.904;2023-06-14T10:57:36;97961.41;;;20.92;33.21
46392;BME280;32098;49.448;7.904;2023-06-14T11:00:07;97964.06;;;21.46;33.36
46392;BME280;32098;49.448;7.904;2023-06-14T11:05:54;97959.66;;;21.72;32.02
46392;BME280;32098;49.448;7.904;2023-06-14T11:09:08;97964.66;;;21.93;32.53
46392;BME280;32098;49.448;7.904;2023-06-14T11:11:39;97966.19;;;21.85;32.67
46392;BME280;32098;49.448;7.904;2023-06-14T11:14:08;97973.22;;;21.86;33.54
46392;BME280;32098;49.448;7.904;2023-06-14T11:16:34;97958.69;;;21.91;32.81
46392;BME280;32098;49.448;7.904;2023-06-14T11:19:01;97970.38;;;22.44;32.66
46392;BME280;32098;49.448;7.904;2023-06-14T11:21:29;97971.88;;;21.97;32.04
46392;BME280;32098;49.448;7.904;2023-06-14T11:23:57;97970.31;;;21.82;32.07
46392;BME280;32098;49.448;7.904;2023-06-14T11:26:25;97961.56;;;21.36;33.20
46392;BME280;32098;49.448;7.904;2023-06-14T11:28:58;97961.19;;;21.65;31.80
46392;BME280;32098;49.448;7.904;2023-06-14T11:31:26;97960.44;;;21.87;32.68
46392;BME280;32098;49.448;7.904;2023-06-14T11:33:54;97960.78;;;22.16;31.82
46392;BME280;32098;49.448;7.904;2023-06-14T11:36:26;97959.34;;;21.38;31.93
46392;BME280;32098;49.448;7.904;2023-06-14T11:39:03;97962.41;;;21.23;33.89
46392;BME280;32098;49.448;7.904;2023-06-14T11:41:43;97982.31;;;20.78;34.03
46392;BME280;32098;49.448;7.904;2023-06-14T11:44:11;97986.50;;;20.43;34.23
46392;BME280;32098;49.448;7.904;2023-06-14T11:46:38;97972.19;;;20.70;34.81
46392;BME280;32098;49.448;7.904;2023-06-14T11:49:07;97977.91;;;20.82;33.98
46392;BME280;32098;49.448;7.904;2023-06-14T11:51:34;97958.78;;;21.00;34.19
46392;BME280;32098;49.448;7.904;2023-06-14T11:54:02;97946.47;;;21.30;33.99
46392;BME280;32098;49.448;7.904;2023-06-14T11:56:30;97936.28;;;21.49;32.63
46392;BME280;32098;49.448;7.904;2023-06-14T11:58:58;97947.56;;;20.80;33.62
46392;BME280;32098;49.448;7.904;2023-06-14T12:01:25;97963.41;;;20.73;33.99
46392;BME280;32098;49.448;7.904;2023-06-14T12:03:54;97945.03;;;20.70;33.98
46392;BME280;32098;49.448;7.904;2023-06-14T12:06:31;97956.75;;;20.38;34.85
46392;BME280;32098;49.448;7.904;2023-06-14T12:09:07;97960.03;;;20.67;34.74
46392;BME280;32098;49.448;7.904;2023-06-14T12:11:39;97956.59;;;20.62;35.15
46392;BME280;32098;49.448;7.904;2023-06-14T12:14:06;97976.81;;;20.69;34.47
46392;BME280;32098;49.448;7.904;2023-06-14T12:16:36;97963.41;;;20.73;34.76
46392;BME280;32098;49.448;7.904;2023-06-14T12:19:14;97955.97;;;20.78;34.64
46392;BME280;32098;49.448;7.904;2023-06-14T12:21:42;97944.63;;;20.90;34.71
46392;BME280;32098;49.448;7.904;2023-06-14T12:24:09;97948.47;;;21.38;34.47
46392;BME280;32098;49.448;7.904;2023-06-14T12:26:39;97953.84;;;21.30;34.91
46392;BME280;32098;49.448;7.904;2023-06-14T12:29:09;97950.22;;;21.34;33.49
46392;BME280;32098;49.448;7.904;2023-06-14T12:31:36;97950.63;;;21.63;33.47
46392;BME280;32098;49.448;7.904;2023-06-14T12:34:03;97951.66;;;21.54;33.33
46392;BME280;32098;49.448;7.904;2023-06-14T12:36:30;97961.91;;;20.94;33.03
46392;BME280;32098;49.448;7.904;2023-06-14T12:38:57;97959.91;;;21.13;32.96
46392;BME280;32098;49.448;7.904;2023-06-14T12:41:24;97955.97;;;21.19;32.78
46392;BME280;32098;49.448;7.904;2023-06-14T12:43:51;97961.22;;;21.02;33.20
46392;BME280;32098;49.448;7.904;2023-06-14T12:46:17;97965.84;;;21.01;32.82
46392;BME280;32098;49.448;7.904;2023-06-14T12:48:44;97959.00;;;20.90;32.28
46392;BME280;32098;49.448;7.904;2023-06-14T12:51:11;97962.63;;;20.99;33.27
46392;BME280;32098;49.448;7.904;2023-06-14T12:53:37;97945.25;;;21.50;33.23
46392;BME280;32098;49.448;7.904;2023-06-14T12:56:04;97938.81;;;21.68;33.06
46392;BME280;32098;49.448;7.904;2023-06-14T12:58:31;97945.03;;;22.04;33.10
46392;BME280;32098;49.448;7.904;2023-06-14T13:00:57;97958.44;;;21.78;32.94
46392;BME280;32098;49.448;7.904;2023-06-14T13:03:24;97962.97;;;21.47;32.93
46392;BME280;32098;49.448;7.904;2023-06-14T13:05:50;97953.22;;;21.68;32.83
46392;BME280;32098;49.448;7.904;2023-06-14T13:08:17;97953.59;;;21.75;31.84
46392;BME280;32098;49.448;7.904;2023-06-14T13:10:43;97956.19;;;22.03;32.33
46392;BME280;32098;49.448;7.904;2023-06-14T13:13:10;97962.81;;;22.32;32.40
46392;BME280;32098;49.448;7.904;2023-06-14T13:15:38;97955.56;;;21.97;33.34
46392;BME280;32098;49.448;7.904;2023-06-14T13:18:06;97952.09;;;21.47;33.64
46392;BME280;32098;49.448;7.904;2023-06-14T13:20:32;97968.44;;;21.20;34.53